sensor_id;sensor_type;location;lat;lon;timestamp;temperature;humidity
15257;DHT22;7731;50.720;6.912;2024-02-16T00:01:47;12.80;79.70
15257;DHT22;7731;50.720;6.912;2024-02-16T00:04:30;12.80;80.60
15257;DHT22;7731;50.720;6.912;2024-02-16T00:07:03;12.80;84.70
15257;DHT22;7731;50.720;6.912;2024-02-16T00:09:33;12.90;65.20
15257;DHT22;7731;50.720;6.912;2024-02-16T00:12:11;12.90;55.00
15257;DHT22;7731;50.720;6.912;2024-02-16T00:14:42;12.90;50.60
15257;DHT22;7731;50.720;6.912;2024-02-16T00:17:13;13.00;40.90
15257;DHT22;7731;50.720;6.912;2024-02-16T00:19:49;13.10;40.00
15257;DHT22;7731;50.720;6.912;2024-02-16T00:22:22;13.10;31.30
15257;DHT22;7731;50.720;6.912;2024-02-16T00:24:53;13.20;24.40
15257;DHT22;7731;50.720;6.912;2024-02-16T00:27:23;13.30;26.50
15257;DHT22;7731;50.720;6.912;2024-02-16T00:29:53;13.30;15.90
15257;DHT22;7731;50.720;6.912;2024-02-16T00:32:29;13.30;18.40
15257;DHT22;7731;50.720;6.912;2024-02-16T00:35:09;13.30;14.30
15257;DHT22;7731;50.720;6.912;2024-02-16T00:37:50;13.30;14.60
15257;DHT22;7731;50.720;6.912;2024-02-16T00:40:21;13.30;21.60
15257;DHT22;7731;50.720;6.912;2024-02-16T00:42:52;13.30;22.20
15257;DHT22;7731;50.720;6.912;2024-02-16T00:45:23;13.30;25.90
15257;DHT22;7731;50.720;6.912;2024-02-16T00:47:53;13.30;29.30
15257;DHT22;7731;50.720;6.912;2024-02-16T00:50:34;13.30;29.80
15257;DHT22;7731;50.720;6.912;2024-02-16T00:53:04;13.30;31.80
15257;DHT22;7731;50.720;6.912;2024-02-16T00:55:35;13.30;29.50
15257;DHT22;7731;50.720;6.912;2024-02-16T00:58:08;13.30;28.40
15257;DHT22;7731;50.720;6.912;2024-02-16T01:00:41;13.40;21.70
15257;DHT22;7731;50.720;6.912;2024-02-16T01:03:12;13.40;22.50
15257;DHT22;7731;50.720;6.912;2024-02-16T01:05:48;13.40;20.90
15257;DHT22;7731;50.720;6.912;2024-02-16T01:08:30;13.40;23.30
15257;DHT22;7731;50.720;6.912;2024-02-16T01:11:00;13.40;31.30
15257;DHT22;7731;50.720;6.912;2024-02-16T01:13:31;13.30;40.00
15257;DHT22;7731;50.720;6.912;2024-02-16T01:16:03;13.40;35.90
15257;DHT22;7731;50.720;6.912;2024-02-16T01:18:36;13.40;33.40
15257;DHT22;7731;50.720;6.912;2024-02-16T01:21:10;13.40;40.00
15257;DHT22;7731;50.720;6.912;2024-02-16T01:23:46;13.40;58.50
15257;DHT22;7731;50.720;6.912;2024-02-16T01:26:16;13.40;96.90
15257;DHT22;7731;50.720;6.912;2024-02-16T01:28:47;13.40;99.90
15257;DHT22;7731;50.720;6.912;2024-02-16T01:31:17;13.30;99.90
15257;DHT22;7731;50.720;6.912;2024-02-16T01:33:50;13.30;99.90
15257;DHT22;7731;50.720;6.912;2024-02-16T01:36:23;13.30;99.90
15257;DHT22;7731;50.720;6.912;2024-02-16T01:38:54;13.30;99.90
15257;DHT22;7731;50.720;6.912;2024-02-16T01:41:24;13.20;99.90
15257;DHT22;7731;50.720;6.912;2024-02-16T01:44:00;13.20;99.90
15257;DHT22;7731;50.720;6.912;2024-02-16T01:46:30;13.20;99.90
15257;DHT22;7731;50.720;6.912;2024-02-16T01:49:03;13.20;99.90
15257;DHT22;7731;50.720;6.912;2024-02-16T01:51:40;13.10;99.90
15257;DHT22;7731;50.720;6.912;2024-02-16T01:54:12;13.10;99.90
15257;DHT22;7731;50.720;6.912;2024-02-16T01:56:48;13.10;99.90
15257;DHT22;7731;50.720;6.912;2024-02-16T01:59:19;13.10;99.90
15257;DHT22;7731;50.720;6.912;2024-02-16T02:01:50;13.10;99.90
15257;DHT22;7731;50.720;6.912;2024-02-16T02:04:23;13.10;99.90
15257;DHT22;7731;50.720;6.912;2024-02-16T02:07:11;13.10;99.90
15257;DHT22;7731;50.720;6.912;2024-02-16T02:09:45;13.10;99.90
15257;DHT22;7731;50.720;6.912;2024-02-16T02:12:18;13.10;99.90
15257;DHT22;7731;50.720;6.912;2024-02-16T02:14:51;13.10;99.90
15257;DHT22;7731;50.720;6.912;2024-02-16T02:17:21;13.10;99.90
15257;DHT22;7731;50.720;6.912;2024-02-16T02:19:54;13.10;99.90
15257;DHT22;7731;50.720;6.912;2024-02-16T02:22:36;13.10;99.90
15257;DHT22;7731;50.720;6.912;2024-02-16T02:25:07;13.10;99.90
15257;DHT22;7731;50.720;6.912;2024-02-16T02:27:38;13.10;99.90
15257;DHT22;7731;50.720;6.912;2024-02-16T02:30:15;13.10;99.90
15257;DHT22;7731;50.720;6.912;2024-02-16T02:32:45;13.20;99.90
15257;DHT22;7731;50.720;6.912;2024-02-16T02:35:16;13.20;99.90
15257;DHT22;7731;50.720;6.912;2024-02-16T02:38:04;13.20;99.90
15257;DHT22;7731;50.720;6.912;2024-02-16T02:40:34;13.20;99.90
15257;DHT22;7731;50.720;6.912;2024-02-16T02:43:07;13.20;99.90
15257;DHT22;7731;50.720;6.912;2024-02-16T02:45:45;13.10;99.90
15257;DHT22;7731;50.720;6.912;2024-02-16T02:48:16;13.10;99.90
15257;DHT22;7731;50.720;6.912;2024-02-16T02:50:46;13.20;99.90
15257;DHT22;7731;50.720;6.912;2024-02-16T02:53:19;13.20;99.90
15257;DHT22;7731;50.720;6.912;2024-02-16T02:55:55;13.20;99.90
15257;DHT22;7731;50.720;6.912;2024-02-16T02:58:28;13.20;99.90
15257;DHT22;7731;50.720;6.912;2024-02-16T03:00:58;13.20;99.90
15257;DHT22;7731;50.720;6.912;2024-02-16T03:03:29;13.20;99.90
15257;DHT22;7731;50.720;6.912;2024-02-16T03:09:15;12.90;99.90
15257;DHT22;7731;50.720;6.912;2024-02-16T03:11:45;12.70;99.90
15257;DHT22;7731;50.720;6.912;2024-02-16T03:14:16;12.60;99.90
15257;DHT22;7731;50.720;6.912;2024-02-16T03:16:46;12.50;99.90
15257;DHT22;7731;50.720;6.912;2024-02-16T03:19:17;12.40;99.90
15257;DHT22;7731;50.720;6.912;2024-02-16T03:21:47;12.30;99.90
15257;DHT22;7731;50.720;6.912;2024-02-16T03:24:20;12.20;99.90
15257;DHT22;7731;50.720;6.912;2024-02-16T03:26:57;12.10;99.90
15257;DHT22;7731;50.720;6.912;2024-02-16T03:29:27;12.10;99.90
15257;DHT22;7731;50.720;6.912;2024-02-16T03:31:58;12.00;99.90
15257;DHT22;7731;50.720;6.912;2024-02-16T03:34:28;12.00;99.90
15257;DHT22;7731;50.720;6.912;2024-02-16T03:37:00;11.90;99.90
15257;DHT22;7731;50.720;6.912;2024-02-16T03:39:33;12.00;99.90
15257;DHT22;7731;50.720;6.912;2024-02-16T03:42:06;12.00;99.90
15257;DHT22;7731;50.720;6.912;2024-02-16T03:44:37;12.10;99.90
15257;DHT22;7731;50.720;6.912;2024-02-16T03:47:07;12.10;99.90
15257;DHT22;7731;50.720;6.912;2024-02-16T03:49:38;12.10;99.90
15257;DHT22;7731;50.720;6.912;2024-02-16T03:52:09;12.10;99.90
15257;DHT22;7731;50.720;6.912;2024-02-16T03:55:00;12.10;99.90
15257;DHT22;7731;50.720;6.912;2024-02-16T03:57:30;12.10;99.90
15257;DHT22;7731;50.720;6.912;2024-02-16T04:00:01;12.10;99.90
15257;DHT22;7731;50.720;6.912;2024-02-16T04:02:38;12.10;99.90
15257;DHT22;7731;50.720;6.912;2024-02-16T04:05:12;12.20;99.90
15257;DHT22;7731;50.720;6.912;2024-02-16T04:07:44;12.20;99.90
15257;DHT22;7731;50.720;6.912;2024-02-16T04:10:17;12.10;99.90
15257;DHT22;7731;50.720;6.912;2024-02-16T04:12:48;12.10;99.90
15257;DHT22;7731;50.720;6.912;2024-02-16T04:15:18;12.10;99.90
15257;DHT22;7731;50.720;6.912;2024-02-16T04:17:52;12.10;99.90
15257;DHT22;7731;50.720;6.912;2024-02-16T04:20:38;12.00;99.90
15257;DHT22;7731;50.720;6.912;2024-02-16T04:23:08;12.00;99.90
15257;DHT22;7731;50.720;6.912;2024-02-16T04:25:41;11.90;99.90
15257;DHT22;7731;50.720;6.912;2024-02-16T04:28:12;12.00;99.90
15257;DHT22;7731;50.720;6.912;2024-02-16T04:30:42;11.90;99.90
15257;DHT22;7731;50.720;6.912;2024-02-16T04:33:14;11.90;99.90
15257;DHT22;7731;50.720;6.912;2024-02-16T04:35:45;11.90;99.90
15257;DHT22;7731;50.720;6.912;2024-02-16T04:38:20;11.90;99.90
15257;DHT22;7731;50.720;6.912;2024-02-16T04:41:12;11.80;99.90
15257;DHT22;7731;50.720;6.912;2024-02-16T04:43:42;11.80;99.90
15257;DHT22;7731;50.720;6.912;2024-02-16T04:46:14;11.80;99.90
15257;DHT22;7731;50.720;6.912;2024-02-16T04:48:45;11.80;99.90
15257;DHT22;7731;50.720;6.912;2024-02-16T04:51:18;11.80;99.90
15257;DHT22;7731;50.720;6.912;2024-02-16T04:53:51;11.90;99.90
15257;DHT22;7731;50.720;6.912;2024-02-16T04:56:29;11.90;99.90
15257;DHT22;7731;50.720;6.912;2024-02-16T04:58:59;11.90;99.90
15257;DHT22;7731;50.720;6.912;2024-02-16T05:01:30;11.90;99.90
15257;DHT22;7731;50.720;6.912;2024-02-16T05:04:00;11.90;99.90
15257;DHT22;7731;50.720;6.912;2024-02-16T05:06:40;11.90;99.90
15257;DHT22;7731;50.720;6.912;2024-02-16T05:09:10;11.90;99.90
15257;DHT22;7731;50.720;6.912;2024-02-16T05:11:49;12.00;99.90
15257;DHT22;7731;50.720;6.912;2024-02-16T05:14:19;12.00;99.90
15257;DHT22;7731;50.720;6.912;2024-02-16T05:16:52;12.00;99.90
15257;DHT22;7731;50.720;6.912;2024-02-16T05:19:25;12.00;99.90
15257;DHT22;7731;50.720;6.912;2024-02-16T05:21:56;12.00;99.90
15257;DHT22;7731;50.720;6.912;2024-02-16T05:24:28;11.90;99.90
15257;DHT22;7731;50.720;6.912;2024-02-16T05:27:05;11.90;99.90
15257;DHT22;7731;50.720;6.912;2024-02-16T05:29:35;11.90;99.90
15257;DHT22;7731;50.720;6.912;2024-02-16T05:32:06;11.80;99.90
15257;DHT22;7731;50.720;6.912;2024-02-16T05:34:37;11.90;99.90
15257;DHT22;7731;50.720;6.912;2024-02-16T05:37:09;12.00;99.90
15257;DHT22;7731;50.720;6.912;2024-02-16T05:39:52;12.00;99.90
15257;DHT22;7731;50.720;6.912;2024-02-16T05:42:37;12.10;99.90
15257;DHT22;7731;50.720;6.912;2024-02-16T05:45:09;12.10;99.90
15257;DHT22;7731;50.720;6.912;2024-02-16T05:47:45;12.10;99.90
15257;DHT22;7731;50.720;6.912;2024-02-16T05:50:22;12.10;99.90
15257;DHT22;7731;50.720;6.912;2024-02-16T05:52:52;12.10;99.90
15257;DHT22;7731;50.720;6.912;2024-02-16T05:55:23;12.20;99.90
15257;DHT22;7731;50.720;6.912;2024-02-16T05:58:02;12.20;99.90
15257;DHT22;7731;50.720;6.912;2024-02-16T06:00:34;12.20;99.90
15257;DHT22;7731;50.720;6.912;2024-02-16T06:03:07;12.10;99.90
15257;DHT22;7731;50.720;6.912;2024-02-16T06:05:38;12.20;99.90
15257;DHT22;7731;50.720;6.912;2024-02-16T06:08:11;12.20;99.90
15257;DHT22;7731;50.720;6.912;2024-02-16T06:10:42;12.20;99.90
15257;DHT22;7731;50.720;6.912;2024-02-16T06:13:23;12.20;99.90
15257;DHT22;7731;50.720;6.912;2024-02-16T06:15:53;12.20;99.90
15257;DHT22;7731;50.720;6.912;2024-02-16T06:18:26;12.20;99.90
15257;DHT22;7731;50.720;6.912;2024-02-16T06:20:57;12.20;99.90
15257;DHT22;7731;50.720;6.912;2024-02-16T06:23:28;12.20;99.90
15257;DHT22;7731;50.720;6.912;2024-02-16T06:25:58;12.20;99.90
15257;DHT22;7731;50.720;6.912;2024-02-16T06:28:31;12.20;99.90
15257;DHT22;7731;50.720;6.912;2024-02-16T06:31:07;12.30;99.90
15257;DHT22;7731;50.720;6.912;2024-02-16T06:33:38;12.30;99.90
15257;DHT22;7731;50.720;6.912;2024-02-16T06:36:11;12.30;99.90
15257;DHT22;7731;50.720;6.912;2024-02-16T06:38:41;12.40;99.90
15257;DHT22;7731;50.720;6.912;2024-02-16T06:41:12;12.50;99.90
15257;DHT22;7731;50.720;6.912;2024-02-16T06:43:47;12.50;99.90
15257;DHT22;7731;50.720;6.912;2024-02-16T06:46:20;12.50;99.90
15257;DHT22;7731;50.720;6.912;2024-02-16T06:48:51;12.60;99.90
15257;DHT22;7731;50.720;6.912;2024-02-16T06:51:32;12.50;99.90
15257;DHT22;7731;50.720;6.912;2024-02-16T06:54:02;12.50;99.90
15257;DHT22;7731;50.720;6.912;2024-02-16T06:56:34;12.50;99.90
15257;DHT22;7731;50.720;6.912;2024-02-16T06:59:08;12.50;99.90
15257;DHT22;7731;50.720;6.912;2024-02-16T07:01:47;12.50;99.90
15257;DHT22;7731;50.720;6.912;2024-02-16T07:04:17;12.60;99.90
15257;DHT22;7731;50.720;6.912;2024-02-16T07:06:51;12.70;99.90
15257;DHT22;7731;50.720;6.912;2024-02-16T07:09:24;12.60;99.90
15257;DHT22;7731;50.720;6.912;2024-02-16T07:11:55;12.70;99.90
15257;DHT22;7731;50.720;6.912;2024-02-16T07:14:32;12.70;99.90
15257;DHT22;7731;50.720;6.912;2024-02-16T07:17:06;12.70;99.90
15257;DHT22;7731;50.720;6.912;2024-02-16T07:19:37;12.70;99.90
15257;DHT22;7731;50.720;6.912;2024-02-16T07:22:13;12.70;99.90
15257;DHT22;7731;50.720;6.912;2024-02-16T07:24:43;12.70;99.90
15257;DHT22;7731;50.720;6.912;2024-02-16T07:27:13;12.70;99.90
15257;DHT22;7731;50.720;6.912;2024-02-16T07:29:51;12.80;99.90
15257;DHT22;7731;50.720;6.912;2024-02-16T07:32:24;12.80;99.90
15257;DHT22;7731;50.720;6.912;2024-02-16T07:34:59;12.80;99.90
15257;DHT22;7731;50.720;6.912;2024-02-16T07:37:30;12.80;99.90
15257;DHT22;7731;50.720;6.912;2024-02-16T07:40:00;12.80;99.90
15257;DHT22;7731;50.720;6.912;2024-02-16T07:42:33;12.80;99.90
15257;DHT22;7731;50.720;6.912;2024-02-16T07:45:09;12.80;99.90
15257;DHT22;7731;50.720;6.912;2024-02-16T07:47:40;12.90;99.90
15257;DHT22;7731;50.720;6.912;2024-02-16T07:50:11;13.00;95.10
15257;DHT22;7731;50.720;6.912;2024-02-16T07:52:55;13.10;59.60
15257;DHT22;7731;50.720;6.912;2024-02-16T07:55:26;13.10;44.10
15257;DHT22;7731;50.720;6.912;2024-02-16T07:57:57;13.10;31.80
15257;DHT22;7731;50.720;6.912;2024-02-16T08:00:33;13.20;28.90
15257;DHT22;7731;50.720;6.912;2024-02-16T08:03:08;13.20;31.30
15257;DHT22;7731;50.720;6.912;2024-02-16T08:05:45;13.30;33.70
15257;DHT22;7731;50.720;6.912;2024-02-16T08:08:15;13.30;16.90
15257;DHT22;7731;50.720;6.912;2024-02-16T08:10:45;13.50;5.50
15257;DHT22;7731;50.720;6.912;2024-02-16T08:13:16;13.60;1.00
15257;DHT22;7731;50.720;6.912;2024-02-16T08:15:50;13.70;1.00
15257;DHT22;7731;50.720;6.912;2024-02-16T08:18:21;13.70;1.00
15257;DHT22;7731;50.720;6.912;2024-02-16T08:20:54;13.80;1.00
15257;DHT22;7731;50.720;6.912;2024-02-16T08:23:30;13.80;1.00
15257;DHT22;7731;50.720;6.912;2024-02-16T08:26:06;13.80;1.00
15257;DHT22;7731;50.720;6.912;2024-02-16T08:28:37;13.80;1.00
15257;DHT22;7731;50.720;6.912;2024-02-16T08:31:10;13.90;1.00
15257;DHT22;7731;50.720;6.912;2024-02-16T08:33:45;14.00;1.00
15257;DHT22;7731;50.720;6.912;2024-02-16T08:36:19;14.00;1.00
15257;DHT22;7731;50.720;6.912;2024-02-16T08:38:56;14.00;1.00
15257;DHT22;7731;50.720;6.912;2024-02-16T08:41:26;14.20;1.00
15257;DHT22;7731;50.720;6.912;2024-02-16T08:44:00;14.20;1.00
15257;DHT22;7731;50.720;6.912;2024-02-16T08:46:33;14.20;1.00
15257;DHT22;7731;50.720;6.912;2024-02-16T08:49:04;14.10;1.00
15257;DHT22;7731;50.720;6.912;2024-02-16T08:51:35;14.10;1.00
15257;DHT22;7731;50.720;6.912;2024-02-16T08:54:06;14.10;1.00
15257;DHT22;7731;50.720;6.912;2024-02-16T08:56:48;14.20;1.00
15257;DHT22;7731;50.720;6.912;2024-02-16T08:59:22;14.20;1.00
15257;DHT22;7731;50.720;6.912;2024-02-16T09:01:56;14.30;1.00
15257;DHT22;7731;50.720;6.912;2024-02-16T09:04:29;14.30;1.00
15257;DHT22;7731;50.720;6.912;2024-02-16T09:07:00;14.30;11.40
15257;DHT22;7731;50.720;6.912;2024-02-16T09:09:32;14.20;18.30
15257;DHT22;7731;50.720;6.912;2024-02-16T09:12:03;14.20;4.70
15257;DHT22;7731;50.720;6.912;2024-02-16T09:14:33;14.20;34.00
15257;DHT22;7731;50.720;6.912;2024-02-16T09:17:09;14.10;51.50
15257;DHT22;7731;50.720;6.912;2024-02-16T09:19:42;14.10;64.40
15257;DHT22;7731;50.720;6.912;2024-02-16T09:22:15;14.10;58.00
15257;DHT22;7731;50.720;6.912;2024-02-16T09:24:46;14.10;46.00
15257;DHT22;7731;50.720;6.912;2024-02-16T09:27:16;14.20;20.10
15257;DHT22;7731;50.720;6.912;2024-02-16T09:29:54;14.20;63.00
15257;DHT22;7731;50.720;6.912;2024-02-16T09:32:27;14.20;52.70
15257;DHT22;7731;50.720;6.912;2024-02-16T09:35:00;14.30;40.70
15257;DHT22;7731;50.720;6.912;2024-02-16T09:37:33;14.30;63.30
15257;DHT22;7731;50.720;6.912;2024-02-16T09:40:16;14.30;64.70
15257;DHT22;7731;50.720;6.912;2024-02-16T09:42:48;14.30;28.20
15257;DHT22;7731;50.720;6.912;2024-02-16T09:45:22;14.50;19.60
15257;DHT22;7731;50.720;6.912;2024-02-16T09:47:57;14.60;1.00
15257;DHT22;7731;50.720;6.912;2024-02-16T09:50:33;14.60;1.00
15257;DHT22;7731;50.720;6.912;2024-02-16T09:53:05;14.40;29.10
15257;DHT22;7731;50.720;6.912;2024-02-16T09:55:38;14.30;77.90
15257;DHT22;7731;50.720;6.912;2024-02-16T09:58:09;14.30;69.40
15257;DHT22;7731;50.720;6.912;2024-02-16T10:00:51;14.30;99.90
15257;DHT22;7731;50.720;6.912;2024-02-16T10:03:29;14.20;99.90
15257;DHT22;7731;50.720;6.912;2024-02-16T10:06:06;14.20;99.90
15257;DHT22;7731;50.720;6.912;2024-02-16T10:08:47;14.00;99.90
15257;DHT22;7731;50.720;6.912;2024-02-16T10:11:20;13.90;99.90
15257;DHT22;7731;50.720;6.912;2024-02-16T10:14:04;13.90;99.90
15257;DHT22;7731;50.720;6.912;2024-02-16T10:16:42;13.90;99.90
15257;DHT22;7731;50.720;6.912;2024-02-16T10:19:17;14.00;99.90
15257;DHT22;7731;50.720;6.912;2024-02-16T10:21:51;14.00;99.90
15257;DHT22;7731;50.720;6.912;2024-02-16T10:24:24;14.00;99.90
15257;DHT22;7731;50.720;6.912;2024-02-16T10:26:55;14.00;99.90
15257;DHT22;7731;50.720;6.912;2024-02-16T10:29:27;14.00;99.90
15257;DHT22;7731;50.720;6.912;2024-02-16T10:32:00;14.10;99.90
15257;DHT22;7731;50.720;6.912;2024-02-16T10:34:35;14.10;99.90
15257;DHT22;7731;50.720;6.912;2024-02-16T10:37:09;14.10;99.90
15257;DHT22;7731;50.720;6.912;2024-02-16T10:39:40;14.20;99.90
15257;DHT22;7731;50.720;6.912;2024-02-16T10:42:13;14.20;99.90
15257;DHT22;7731;50.720;6.912;2024-02-16T10:44:50;14.20;99.90
15257;DHT22;7731;50.720;6.912;2024-02-16T10:47:24;14.20;99.90
15257;DHT22;7731;50.720;6.912;2024-02-16T10:50:00;14.30;99.90
15257;DHT22;7731;50.720;6.912;2024-02-16T10:52:32;14.30;99.90
15257;DHT22;7731;50.720;6.912;2024-02-16T10:55:24;14.20;99.90
15257;DHT22;7731;50.720;6.912;2024-02-16T10:57:56;14.10;99.90
15257;DHT22;7731;50.720;6.912;2024-02-16T11:00:27;14.10;99.90
15257;DHT22;7731;50.720;6.912;2024-02-16T11:02:58;14.10;99.90
15257;DHT22;7731;50.720;6.912;2024-02-16T11:05:35;14.10;99.90
15257;DHT22;7731;50.720;6.912;2024-02-16T11:08:12;14.10;99.90
15257;DHT22;7731;50.720;6.912;2024-02-16T11:10:57;14.10;99.90
15257;DHT22;7731;50.720;6.912;2024-02-16T11:13:35;14.10;99.90
15257;DHT22;7731;50.720;6.912;2024-02-16T11:16:10;14.10;99.90
15257;DHT22;7731;50.720;6.912;2024-02-16T11:18:46;14.10;99.90
15257;DHT22;7731;50.720;6.912;2024-02-16T11:21:27;14.20;99.90
15257;DHT22;7731;50.720;6.912;2024-02-16T11:24:06;14.20;99.90
15257;DHT22;7731;50.720;6.912;2024-02-16T11:26:45;14.20;99.90
15257;DHT22;7731;50.720;6.912;2024-02-16T11:29:15;14.30;99.90
15257;DHT22;7731;50.720;6.912;2024-02-16T11:31:50;14.40;99.90
15257;DHT22;7731;50.720;6.912;2024-02-16T11:34:23;14.40;99.90
15257;DHT22;7731;50.720;6.912;2024-02-16T11:36:57;14.40;99.90
15257;DHT22;7731;50.720;6.912;2024-02-16T11:39:28;14.50;99.90
15257;DHT22;7731;50.720;6.912;2024-02-16T11:42:09;14.50;99.90
15257;DHT22;7731;50.720;6.912;2024-02-16T11:44:51;14.60;99.90
15257;DHT22;7731;50.720;6.912;2024-02-16T11:47:25;14.70;99.90
15257;DHT22;7731;50.720;6.912;2024-02-16T11:50:01;14.80;99.90
15257;DHT22;7731;50.720;6.912;2024-02-16T11:52:35;14.90;99.90
15257;DHT22;7731;50.720;6.912;2024-02-16T11:55:09;14.90;99.90
15257;DHT22;7731;50.720;6.912;2024-02-16T11:57:47;14.80;99.90
15257;DHT22;7731;50.720;6.912;2024-02-16T12:00:27;14.70;99.90
15257;DHT22;7731;50.720;6.912;2024-02-16T12:03:01;14.60;99.90
15257;DHT22;7731;50.720;6.912;2024-02-16T12:05:31;14.60;99.90
15257;DHT22;7731;50.720;6.912;2024-02-16T12:08:06;14.60;99.90
15257;DHT22;7731;50.720;6.912;2024-02-16T12:10:36;14.60;99.90
15257;DHT22;7731;50.720;6.912;2024-02-16T12:13:07;14.50;99.90
15257;DHT22;7731;50.720;6.912;2024-02-16T12:15:39;14.60;99.90
15257;DHT22;7731;50.720;6.912;2024-02-16T12:18:28;14.70;99.90
15257;DHT22;7731;50.720;6.912;2024-02-16T12:20:59;14.70;99.90
15257;DHT22;7731;50.720;6.912;2024-02-16T12:23:33;14.70;99.90
15257;DHT22;7731;50.720;6.912;2024-02-16T12:26:05;14.80;99.90
15257;DHT22;7731;50.720;6.912;2024-02-16T12:28:36;14.70;99.90
15257;DHT22;7731;50.720;6.912;2024-02-16T12:31:21;14.70;99.90
15257;DHT22;7731;50.720;6.912;2024-02-16T12:33:53;14.60;99.90
15257;DHT22;7731;50.720;6.912;2024-02-16T12:36:26;14.60;99.90
15257;DHT22;7731;50.720;6.912;2024-02-16T12:38:59;14.60;99.90
15257;DHT22;7731;50.720;6.912;2024-02-16T12:41:31;14.50;99.90
15257;DHT22;7731;50.720;6.912;2024-02-16T12:44:01;14.50;99.90
15257;DHT22;7731;50.720;6.912;2024-02-16T12:46:32;14.60;99.90
15257;DHT22;7731;50.720;6.912;2024-02-16T12:49:02;14.60;99.90
15257;DHT22;7731;50.720;6.912;2024-02-16T12:51:40;14.60;99.90
15257;DHT22;7731;50.720;6.912;2024-02-16T12:54:13;14.60;99.90
15257;DHT22;7731;50.720;6.912;2024-02-16T12:56:46;14.60;99.90
15257;DHT22;7731;50.720;6.912;2024-02-16T12:59:20;14.50;99.90
15257;DHT22;7731;50.720;6.912;2024-02-16T13:02:03;14.50;99.90
15257;DHT22;7731;50.720;6.912;2024-02-16T13:04:33;14.50;99.90
15257;DHT22;7731;50.720;6.912;2024-02-16T13:07:04;14.50;99.90
15257;DHT22;7731;50.720;6.912;2024-02-16T13:09:39;14.60;99.90
15257;DHT22;7731;50.720;6.912;2024-02-16T13:12:12;14.50;99.90
15257;DHT22;7731;50.720;6.912;2024-02-16T13:14:45;14.50;99.90
15257;DHT22;7731;50.720;6.912;2024-02-16T13:17:15;14.40;99.90
15257;DHT22;7731;50.720;6.912;2024-02-16T13:19:48;14.40;99.90
15257;DHT22;7731;50.720;6.912;2024-02-16T13:22:28;14.40;99.90
15257;DHT22;7731;50.720;6.912;2024-02-16T13:25:02;14.40;99.90
15257;DHT22;7731;50.720;6.912;2024-02-16T13:27:35;14.40;99.90
15257;DHT22;7731;50.720;6.912;2024-02-16T13:30:07;14.30;99.90
15257;DHT22;7731;50.720;6.912;2024-02-16T13:32:38;14.30;99.90
15257;DHT22;7731;50.720;6.912;2024-02-16T13:35:09;14.30;99.90
15257;DHT22;7731;50.720;6.912;2024-02-16T13:37:43;14.20;99.90
15257;DHT22;7731;50.720;6.912;2024-02-16T13:40:18;14.20;99.90
15257;DHT22;7731;50.720;6.912;2024-02-16T13:42:51;14.30;99.90
15257;DHT22;7731;50.720;6.912;2024-02-16T13:45:30;14.20;99.90
15257;DHT22;7731;50.720;6.912;2024-02-16T13:48:19;14.20;99.90
15257;DHT22;7731;50.720;6.912;2024-02-16T13:50:55;14.30;99.90
15257;DHT22;7731;50.720;6.912;2024-02-16T13:53:33;14.40;99.90
15257;DHT22;7731;50.720;6.912;2024-02-16T13:56:17;14.40;99.90
15257;DHT22;7731;50.720;6.912;2024-02-16T13:58:48;14.40;99.90
15257;DHT22;7731;50.720;6.912;2024-02-16T14:01:18;14.40;99.90
15257;DHT22;7731;50.720;6.912;2024-02-16T14:03:51;14.40;99.90
15257;DHT22;7731;50.720;6.912;2024-02-16T14:06:25;14.40;99.90
15257;DHT22;7731;50.720;6.912;2024-02-16T14:08:56;14.40;99.90
15257;DHT22;7731;50.720;6.912;2024-02-16T14:11:35;14.40;99.90
15257;DHT22;7731;50.720;6.912;2024-02-16T14:14:08;14.40;99.90
15257;DHT22;7731;50.720;6.912;2024-02-16T14:16:54;14.40;99.90
15257;DHT22;7731;50.720;6.912;2024-02-16T14:19:24;14.30;99.90
15257;DHT22;7731;50.720;6.912;2024-02-16T14:21:59;14.30;99.90
15257;DHT22;7731;50.720;6.912;2024-02-16T14:24:30;14.30;99.90
15257;DHT22;7731;50.720;6.912;2024-02-16T14:27:04;14.30;99.90
15257;DHT22;7731;50.720;6.912;2024-02-16T14:29:34;14.40;99.90
15257;DHT22;7731;50.720;6.912;2024-02-16T14:32:05;14.50;99.90
15257;DHT22;7731;50.720;6.912;2024-02-16T14:34:36;14.50;99.90
15257;DHT22;7731;50.720;6.912;2024-02-16T14:37:09;14.50;99.90
15257;DHT22;7731;50.720;6.912;2024-02-16T14:39:40;14.50;99.90
15257;DHT22;7731;50.720;6.912;2024-02-16T14:42:13;14.50;99.90
15257;DHT22;7731;50.720;6.912;2024-02-16T14:44:44;14.50;99.90
15257;DHT22;7731;50.720;6.912;2024-02-16T14:47:23;14.40;99.90
15257;DHT22;7731;50.720;6.912;2024-02-16T14:49:56;14.50;99.90
15257;DHT22;7731;50.720;6.912;2024-02-16T14:52:27;14.40;99.90
15257;DHT22;7731;50.720;6.912;2024-02-16T14:54:57;14.40;99.90
15257;DHT22;7731;50.720;6.912;2024-02-16T14:57:33;14.40;99.90
15257;DHT22;7731;50.720;6.912;2024-02-16T15:00:04;14.40;99.90
15257;DHT22;7731;50.720;6.912;2024-02-16T15:02:38;14.40;99.90
15257;DHT22;7731;50.720;6.912;2024-02-16T15:05:10;14.40;99.90
15257;DHT22;7731;50.720;6.912;2024-02-16T15:07:43;14.40;99.90
15257;DHT22;7731;50.720;6.912;2024-02-16T15:10:13;14.40;99.90
15257;DHT22;7731;50.720;6.912;2024-02-16T15:12:49;14.40;99.90
15257;DHT22;7731;50.720;6.912;2024-02-16T15:15:19;14.40;99.90
15257;DHT22;7731;50.720;6.912;2024-02-16T15:17:49;14.30;99.90
15257;DHT22;7731;50.720;6.912;2024-02-16T15:20:20;14.40;99.90
15257;DHT22;7731;50.720;6.912;2024-02-16T15:22:54;14.50;99.90
15257;DHT22;7731;50.720;6.912;2024-02-16T15:25:24;14.50;99.90
15257;DHT22;7731;50.720;6.912;2024-02-16T15:27:57;14.30;99.90
15257;DHT22;7731;50.720;6.912;2024-02-16T15:30:28;14.30;99.90
15257;DHT22;7731;50.720;6.912;2024-02-16T15:32:59;14.30;99.90
15257;DHT22;7731;50.720;6.912;2024-02-16T15:35:29;14.20;99.90
15257;DHT22;7731;50.720;6.912;2024-02-16T15:37:59;14.30;99.90
15257;DHT22;7731;50.720;6.912;2024-02-16T15:40:32;14.30;99.90
15257;DHT22;7731;50.720;6.912;2024-02-16T15:43:17;14.30;99.90
15257;DHT22;7731;50.720;6.912;2024-02-16T15:45:47;14.20;99.90
15257;DHT22;7731;50.720;6.912;2024-02-16T15:48:20;14.20;99.90
15257;DHT22;7731;50.720;6.912;2024-02-16T15:50:54;14.10;99.90
15257;DHT22;7731;50.720;6.912;2024-02-16T15:53:34;14.10;99.90
15257;DHT22;7731;50.720;6.912;2024-02-16T15:56:08;14.00;99.90
15257;DHT22;7731;50.720;6.912;2024-02-16T15:58:41;14.00;99.90
15257;DHT22;7731;50.720;6.912;2024-02-16T16:01:11;14.00;99.90
15257;DHT22;7731;50.720;6.912;2024-02-16T16:03:42;13.90;99.90
15257;DHT22;7731;50.720;6.912;2024-02-16T16:06:13;13.90;99.90
15257;DHT22;7731;50.720;6.912;2024-02-16T16:08:44;13.90;99.90
15257;DHT22;7731;50.720;6.912;2024-02-16T16:11:15;13.80;99.90
15257;DHT22;7731;50.720;6.912;2024-02-16T16:13:58;13.70;99.90
15257;DHT22;7731;50.720;6.912;2024-02-16T16:16:37;13.70;99.90
15257;DHT22;7731;50.720;6.912;2024-02-16T16:19:10;13.60;99.90
15257;DHT22;7731;50.720;6.912;2024-02-16T16:21:41;13.60;99.90
15257;DHT22;7731;50.720;6.912;2024-02-16T16:24:19;13.60;99.90
15257;DHT22;7731;50.720;6.912;2024-02-16T16:26:50;13.50;99.90
15257;DHT22;7731;50.720;6.912;2024-02-16T16:29:23;13.70;99.90
15257;DHT22;7731;50.720;6.912;2024-02-16T16:31:56;13.60;99.90